createdAt,value
2017-03-29T00:00:40.102Z,0
2017-03-29T00:01:52.328Z,0
2017-03-29T00:03:04.877Z,0
2017-03-29T00:04:17.406Z,0
2017-03-29T00:05:29.939Z,0
2017-03-29T00:06:42.458Z,0
2017-03-29T00:07:54.980Z,0
2017-03-29T00:09:07.498Z,0
2017-03-29T00:10:20.037Z,0
2017-03-29T00:11:32.266Z,0
2017-03-29T00:12:44.811Z,0
2017-03-29T00:13:57.354Z,0
2017-03-29T00:15:09.596Z,0
2017-03-29T00:16:22.124Z,0
2017-03-29T00:17:34.666Z,0
2017-03-29T00:18:47.168Z,0
2017-03-29T00:19:59.665Z,0
2017-03-29T00:21:12.188Z,0
2017-03-29T00:22:24.459Z,0
2017-03-29T00:23:36.992Z,0
2017-03-29T00:24:49.516Z,0
2017-03-29T00:26:02.070Z,0
2017-03-29T00:27:14.613Z,0
2017-03-29T00:28:27.157Z,0
2017-03-29T00:29:39.379Z,0
2017-03-29T00:30:51.908Z,0
2017-03-29T00:32:04.474Z,0
2017-03-29T00:33:16.995Z,0
2017-03-29T00:34:29.540Z,0
2017-03-29T00:35:42.058Z,0
2017-03-29T00:36:54.575Z,0
2017-03-29T00:38:07.150Z,0
2017-03-29T00:39:19.672Z,0
2017-03-29T00:40:32.185Z,0
2017-03-29T00:41:44.714Z,0
2017-03-29T00:42:57.485Z,0
2017-03-29T00:44:09.722Z,0
2017-03-29T00:45:22.228Z,0
2017-03-29T00:46:34.450Z,0
2017-03-29T00:47:46.993Z,0
2017-03-29T00:48:59.514Z,0
2017-03-29T00:50:12.038Z,0
2017-03-29T00:51:24.579Z,0
2017-03-29T00:52:37.101Z,0
2017-03-29T00:53:49.622Z,0
2017-03-29T00:55:01.876Z,0
2017-03-29T00:56:13.818Z,0
2017-03-29T00:57:26.339Z,0
2017-03-29T00:58:38.555Z,0
2017-03-29T00:59:50.772Z,0
2017-03-29T01:01:03.325Z,0
2017-03-29T01:02:15.887Z,0
2017-03-29T01:03:28.417Z,0
2017-03-29T01:04:40.941Z,0
2017-03-29T01:05:53.499Z,0
2017-03-29T01:07:05.728Z,0
2017-03-29T01:08:17.953Z,0
2017-03-29T01:09:30.200Z,0
2017-03-29T01:10:42.720Z,0
2017-03-29T01:11:55.255Z,0
2017-03-29T01:13:07.756Z,0
2017-03-29T01:14:19.981Z,0
2017-03-29T01:15:32.502Z,0
2017-03-29T01:16:44.749Z,0
2017-03-29T01:17:57.312Z,0
2017-03-29T01:19:09.841Z,0
2017-03-29T01:20:22.413Z,0
2017-03-29T01:21:34.971Z,0
2017-03-29T01:22:47.516Z,0
2017-03-29T01:23:59.748Z,0
2017-03-29T01:25:11.949Z,0
2017-03-29T01:26:24.467Z,0
2017-03-29T01:27:37.032Z,0
2017-03-29T01:28:49.555Z,0
2017-03-29T01:30:02.093Z,0
2017-03-29T01:31:14.671Z,0
2017-03-29T01:32:27.195Z,0
2017-03-29T01:33:39.443Z,0
2017-03-29T01:34:52.009Z,0
2017-03-29T01:36:04.533Z,0
2017-03-29T01:37:17.051Z,0
2017-03-29T01:38:29.588Z,0
2017-03-29T01:39:41.513Z,0
2017-03-29T01:40:54.038Z,0
2017-03-29T01:42:06.579Z,0
2017-03-29T01:43:18.825Z,0
2017-03-29T01:44:31.351Z,0
2017-03-29T01:45:43.872Z,0
2017-03-29T01:46:56.392Z,0
2017-03-29T01:48:08.892Z,0
2017-03-29T01:49:21.412Z,0
2017-03-29T01:50:33.955Z,0
2017-03-29T01:51:46.481Z,0
2017-03-29T01:52:58.728Z,0
2017-03-29T01:54:11.270Z,0
2017-03-29T01:55:23.789Z,0
2017-03-29T01:56:36.026Z,0
2017-03-29T01:57:48.560Z,0
2017-03-29T01:59:01.101Z,0
2017-03-29T02:00:13.346Z,0
2017-03-29T02:01:25.886Z,0
2017-03-29T02:02:38.439Z,0
2017-03-29T02:03:50.986Z,0
2017-03-29T02:05:03.756Z,0
2017-03-29T02:06:15.980Z,0
2017-03-29T02:07:28.497Z,0
2017-03-29T02:08:40.747Z,0
2017-03-29T02:09:53.286Z,0
2017-03-29T02:11:05.785Z,0
2017-03-29T02:12:18.310Z,0
2017-03-29T02:13:30.827Z,0
2017-03-29T02:14:43.049Z,0
2017-03-29T02:15:55.272Z,0
2017-03-29T02:17:07.491Z,0
2017-03-29T02:18:19.735Z,0
2017-03-29T02:19:31.958Z,0
2017-03-29T02:20:44.457Z,0
2017-03-29T02:21:56.995Z,0
2017-03-29T02:23:09.538Z,0
2017-03-29T02:24:21.787Z,0
2017-03-29T02:25:34.328Z,0
2017-03-29T02:26:46.582Z,0
2017-03-29T02:27:59.125Z,0
2017-03-29T02:29:11.659Z,0
2017-03-29T02:30:23.897Z,0
2017-03-29T02:31:36.438Z,0
2017-03-29T02:32:48.970Z,0
2017-03-29T02:34:01.537Z,0
2017-03-29T02:35:13.783Z,0
2017-03-29T02:36:26.325Z,0
2017-03-29T02:37:38.863Z,0
2017-03-29T02:38:51.392Z,0
2017-03-29T02:40:03.887Z,0
2017-03-29T02:41:16.109Z,0
2017-03-29T02:42:28.651Z,0
2017-03-29T02:43:41.193Z,0
2017-03-29T02:44:53.725Z,0
2017-03-29T02:46:06.217Z,0
2017-03-29T02:47:18.739Z,0
2017-03-29T02:48:31.287Z,0
2017-03-29T02:49:43.526Z,0
2017-03-29T02:50:55.783Z,0
2017-03-29T02:52:08.306Z,0
2017-03-29T02:53:20.861Z,0
2017-03-29T02:54:33.089Z,0
2017-03-29T02:55:45.631Z,0
2017-03-29T02:56:57.872Z,0
2017-03-29T02:58:10.102Z,0
2017-03-29T02:59:22.951Z,0
2017-03-29T03:00:35.200Z,0
2017-03-29T03:01:47.735Z,0
2017-03-29T03:03:00.277Z,0
2017-03-29T03:04:12.480Z,0
2017-03-29T03:05:24.998Z,0
2017-03-29T03:06:37.540Z,0
2017-03-29T03:07:50.073Z,0
2017-03-29T03:09:02.607Z,0
2017-03-29T03:10:15.160Z,0
2017-03-29T03:11:27.681Z,0
2017-03-29T03:12:40.203Z,0
2017-03-29T03:13:52.749Z,0
2017-03-29T03:15:05.298Z,0
2017-03-29T03:16:17.836Z,0
2017-03-29T03:17:30.384Z,0
2017-03-29T03:18:42.632Z,0
2017-03-29T03:19:54.850Z,0
2017-03-29T03:21:07.394Z,0
2017-03-29T03:22:19.924Z,0
2017-03-29T03:23:32.140Z,0
2017-03-29T03:24:44.665Z,0
2017-03-29T03:25:56.886Z,0
2017-03-29T03:27:09.405Z,0
2017-03-29T03:28:21.925Z,0
2017-03-29T03:29:34.448Z,0
2017-03-29T03:30:46.366Z,0
2017-03-29T03:31:58.887Z,0
2017-03-29T03:33:11.086Z,0
2017-03-29T03:34:23.608Z,0
2017-03-29T03:35:36.145Z,0
2017-03-29T03:36:48.691Z,0
2017-03-29T03:38:01.221Z,0
2017-03-29T03:39:13.441Z,0
2017-03-29T03:40:25.975Z,0
2017-03-29T03:41:38.537Z,0
2017-03-29T03:42:51.057Z,0
2017-03-29T03:44:03.570Z,0
2017-03-29T03:45:16.075Z,0
2017-03-29T03:46:28.638Z,0
2017-03-29T03:47:40.886Z,0
2017-03-29T03:48:53.404Z,0
2017-03-29T03:50:05.926Z,0
2017-03-29T03:51:18.139Z,0
2017-03-29T03:52:30.669Z,0
2017-03-29T03:53:43.193Z,0
2017-03-29T03:54:55.408Z,0
2017-03-29T03:56:07.933Z,0
2017-03-29T03:57:20.151Z,0
2017-03-29T03:58:32.077Z,0
2017-03-29T03:59:44.576Z,0
2017-03-29T04:00:57.109Z,0
2017-03-29T04:02:09.661Z,0
2017-03-29T04:03:22.197Z,0
2017-03-29T04:04:35.030Z,0
2017-03-29T04:05:47.574Z,0
2017-03-29T04:07:00.113Z,0
2017-03-29T04:08:12.341Z,0
2017-03-29T04:09:24.860Z,0
2017-03-29T04:10:37.100Z,0
2017-03-29T04:11:49.332Z,0
2017-03-29T04:13:01.853Z,0
2017-03-29T04:14:14.089Z,0
2017-03-29T04:15:26.607Z,0
2017-03-29T04:16:39.088Z,0
2017-03-29T04:17:51.606Z,0
2017-03-29T04:19:04.125Z,0
2017-03-29T04:20:16.323Z,0
2017-03-29T04:21:28.869Z,0
2017-03-29T04:22:41.392Z,0
2017-03-29T04:23:53.910Z,0
2017-03-29T04:25:06.456Z,0
2017-03-29T04:26:18.979Z,0
2017-03-29T04:27:31.523Z,0
2017-03-29T04:28:44.047Z,0
2017-03-29T04:29:56.565Z,0
2017-03-29T04:31:09.448Z,0
2017-03-29T04:32:22.004Z,0
2017-03-29T04:33:34.549Z,0
2017-03-29T04:34:47.076Z,0
2017-03-29T04:35:59.301Z,0
2017-03-29T04:37:12.165Z,0
2017-03-29T04:38:24.691Z,5
2017-03-29T04:39:36.913Z,5
2017-03-29T04:40:49.423Z,5
2017-03-29T04:42:01.669Z,5
2017-03-29T04:43:13.915Z,5
2017-03-29T04:44:26.445Z,10
2017-03-29T04:45:38.987Z,10
2017-03-29T04:46:51.510Z,10
2017-03-29T04:48:04.022Z,15
2017-03-29T04:49:16.578Z,15
2017-03-29T04:50:29.095Z,15
2017-03-29T04:51:41.623Z,20
2017-03-29T04:52:53.837Z,20
2017-03-29T04:54:06.386Z,25
2017-03-29T04:55:18.928Z,25
2017-03-29T04:56:31.466Z,25
2017-03-29T04:57:43.696Z,30
2017-03-29T04:58:56.212Z,30
2017-03-29T05:00:08.765Z,35
2017-03-29T05:01:21.283Z,40
2017-03-29T05:02:33.497Z,45
2017-03-29T05:03:46.027Z,50
2017-03-29T05:04:58.549Z,50
2017-03-29T05:06:11.068Z,45
2017-03-29T05:07:23.580Z,45
2017-03-29T05:08:36.089Z,50
2017-03-29T05:09:48.634Z,50
2017-03-29T05:11:00.594Z,45
2017-03-29T05:12:12.518Z,45
2017-03-29T05:13:25.093Z,45
2017-03-29T05:14:37.617Z,40
2017-03-29T05:15:50.135Z,40
2017-03-29T05:17:02.661Z,45
2017-03-29T05:18:15.222Z,50
2017-03-29T05:19:27.768Z,55
2017-03-29T05:20:40.661Z,60
2017-03-29T05:21:53.164Z,60
2017-03-29T05:23:05.690Z,60
2017-03-29T05:24:17.923Z,60
2017-03-29T05:25:30.426Z,65
2017-03-29T05:26:42.651Z,70
2017-03-29T05:27:54.586Z,75
2017-03-29T05:29:07.146Z,75
2017-03-29T05:30:19.682Z,75
2017-03-29T05:31:32.227Z,75
2017-03-29T05:32:44.806Z,80
2017-03-29T05:33:57.368Z,80
2017-03-29T05:35:09.912Z,65
2017-03-29T05:36:22.137Z,55
2017-03-29T05:37:34.661Z,50
2017-03-29T05:38:46.924Z,60
2017-03-29T05:39:59.435Z,85
2017-03-29T05:41:11.974Z,105
2017-03-29T05:42:24.523Z,115
2017-03-29T05:43:37.041Z,120
2017-03-29T05:44:49.568Z,125
2017-03-29T05:46:01.484Z,125
2017-03-29T05:47:14.028Z,115
2017-03-29T05:48:26.570Z,110
2017-03-29T05:49:39.125Z,105
2017-03-29T05:50:51.398Z,115
2017-03-29T05:52:03.916Z,130
2017-03-29T05:53:16.833Z,140
2017-03-29T05:54:29.041Z,140
2017-03-29T05:55:41.603Z,150
2017-03-29T05:56:53.819Z,160
2017-03-29T05:58:06.066Z,165
2017-03-29T05:59:18.609Z,165
2017-03-29T06:00:30.883Z,185
2017-03-29T06:01:43.104Z,220
2017-03-29T06:02:55.333Z,280
2017-03-29T06:04:07.888Z,360
2017-03-29T06:05:20.395Z,320
2017-03-29T06:06:32.913Z,275
2017-03-29T06:07:45.429Z,260
2017-03-29T06:08:57.647Z,260
2017-03-29T06:10:09.880Z,250
2017-03-29T06:11:22.425Z,220
2017-03-29T06:12:34.968Z,210
2017-03-29T06:13:47.516Z,225
2017-03-29T06:15:00.080Z,245
2017-03-29T06:16:12.311Z,275
2017-03-29T06:17:24.831Z,295
2017-03-29T06:18:37.352Z,310
2017-03-29T06:19:49.910Z,315
2017-03-29T06:21:02.156Z,320
2017-03-29T06:22:14.687Z,320
2017-03-29T06:23:26.923Z,320
2017-03-29T06:24:39.444Z,315
2017-03-29T06:25:51.967Z,310
2017-03-29T06:27:04.514Z,315
2017-03-29T06:28:16.738Z,320
2017-03-29T06:29:29.030Z,330
2017-03-29T06:30:41.584Z,340
2017-03-29T06:31:54.152Z,345
2017-03-29T06:33:06.721Z,360
2017-03-29T06:34:19.273Z,380
2017-03-29T06:35:31.518Z,415
2017-03-29T06:36:44.054Z,465
2017-03-29T06:37:56.584Z,520
2017-03-29T06:39:09.119Z,570
2017-03-29T06:40:21.643Z,630
2017-03-29T06:41:34.194Z,650
2017-03-29T06:42:46.694Z,685
2017-03-29T06:43:59.237Z,645
2017-03-29T06:45:11.479Z,630
2017-03-29T06:46:24.003Z,600
2017-03-29T06:47:36.523Z,565
2017-03-29T06:48:48.754Z,540
2017-03-29T06:50:00.994Z,530
2017-03-29T06:51:13.519Z,530
2017-03-29T06:52:25.782Z,545
2017-03-29T06:53:38.303Z,550
2017-03-29T06:54:50.850Z,565
2017-03-29T06:56:02.771Z,585
2017-03-29T06:57:15.291Z,625
2017-03-29T06:58:27.815Z,675
2017-03-29T06:59:40.362Z,675
2017-03-29T07:00:52.909Z,750
2017-03-29T07:02:05.124Z,685
2017-03-29T07:03:17.666Z,680
2017-03-29T07:04:30.326Z,675
2017-03-29T07:05:43.157Z,685
2017-03-29T07:06:55.363Z,670
2017-03-29T07:08:07.604Z,660
2017-03-29T07:09:20.157Z,665
2017-03-29T07:10:32.717Z,660
2017-03-29T07:11:44.967Z,635
2017-03-29T07:12:57.215Z,605
2017-03-29T07:14:09.463Z,585
2017-03-29T07:15:22.007Z,590
2017-03-29T07:16:34.531Z,610
2017-03-29T07:17:46.768Z,610
2017-03-29T07:18:59.010Z,610
2017-03-29T07:20:11.589Z,605
2017-03-29T07:21:24.110Z,600
2017-03-29T07:22:36.633Z,610
2017-03-29T07:23:49.197Z,645
2017-03-29T07:25:01.721Z,625
2017-03-29T07:26:14.265Z,585
2017-03-29T07:27:26.819Z,570
2017-03-29T07:28:39.352Z,605
2017-03-29T07:29:51.883Z,680
2017-03-29T07:31:04.430Z,780
2017-03-29T07:32:16.701Z,845
2017-03-29T07:33:29.218Z,885
2017-03-29T07:34:41.769Z,820
2017-03-29T07:35:54.310Z,805
2017-03-29T07:37:06.857Z,800
2017-03-29T07:38:19.379Z,860
2017-03-29T07:39:31.919Z,865
2017-03-29T07:40:44.444Z,860
2017-03-29T07:41:56.992Z,820
2017-03-29T07:43:09.532Z,790
2017-03-29T07:44:22.048Z,790
2017-03-29T07:45:34.586Z,790
2017-03-29T07:46:47.149Z,745
2017-03-29T07:47:59.689Z,715
2017-03-29T07:49:12.221Z,735
2017-03-29T07:50:24.753Z,740
2017-03-29T07:51:37.277Z,710
2017-03-29T07:52:49.803Z,660
2017-03-29T07:54:02.344Z,615
2017-03-29T07:55:14.890Z,625
2017-03-29T07:56:27.138Z,670
2017-03-29T07:57:39.686Z,705
2017-03-29T07:58:52.228Z,740
2017-03-29T08:00:04.771Z,750
2017-03-29T08:01:17.021Z,760
2017-03-29T08:02:29.551Z,755
2017-03-29T08:03:42.091Z,730
2017-03-29T08:04:54.632Z,680
2017-03-29T08:06:07.175Z,650
2017-03-29T08:07:19.710Z,625
2017-03-29T08:08:31.931Z,625
2017-03-29T08:09:44.449Z,605
2017-03-29T08:10:57.019Z,590
2017-03-29T08:12:09.543Z,610
2017-03-29T08:13:22.085Z,665
2017-03-29T08:14:34.634Z,695
2017-03-29T08:15:47.175Z,690
2017-03-29T08:16:59.703Z,640
2017-03-29T08:18:12.220Z,630
2017-03-29T08:19:24.768Z,605
2017-03-29T08:20:37.326Z,565
2017-03-29T08:21:49.582Z,555
2017-03-29T08:23:02.121Z,540
2017-03-29T08:24:14.650Z,510
2017-03-29T08:25:26.889Z,475
2017-03-29T08:26:39.469Z,455
2017-03-29T08:27:52.020Z,490
2017-03-29T08:29:04.260Z,550
2017-03-29T08:30:16.806Z,610
2017-03-29T08:31:29.385Z,660
2017-03-29T08:32:41.918Z,705
2017-03-29T08:33:54.456Z,735
2017-03-29T08:35:06.713Z,720
2017-03-29T08:36:19.265Z,675
2017-03-29T08:37:31.800Z,630
2017-03-29T08:38:43.750Z,630
2017-03-29T08:39:56.286Z,665
2017-03-29T08:41:08.834Z,755
2017-03-29T08:42:21.037Z,880
2017-03-29T08:43:33.577Z,915
2017-03-29T08:44:46.127Z,905
2017-03-29T08:45:58.352Z,865
2017-03-29T08:47:10.897Z,835
2017-03-29T08:48:23.143Z,840
2017-03-29T08:49:35.678Z,880
2017-03-29T08:50:48.209Z,925
2017-03-29T08:52:00.153Z,950
2017-03-29T08:53:12.095Z,955
2017-03-29T08:54:24.625Z,930
2017-03-29T08:55:37.144Z,910
2017-03-29T08:56:49.665Z,920
2017-03-29T08:58:02.208Z,925
2017-03-29T08:59:14.756Z,900
2017-03-29T09:00:27.290Z,865
2017-03-29T09:01:39.803Z,860
2017-03-29T09:02:52.336Z,865
2017-03-29T09:04:04.582Z,900
2017-03-29T09:05:17.112Z,950
2017-03-29T09:06:29.633Z,1020
2017-03-29T09:07:42.195Z,1010
2017-03-29T09:08:54.738Z,1005
2017-03-29T09:10:07.291Z,975
2017-03-29T09:11:19.829Z,940
2017-03-29T09:12:32.362Z,925
2017-03-29T09:13:44.878Z,965
2017-03-29T09:14:57.124Z,1005
2017-03-29T09:16:09.667Z,1080
2017-03-29T09:17:22.216Z,1145
2017-03-29T09:18:34.483Z,1165
2017-03-29T09:19:47.009Z,1175
2017-03-29T09:20:59.550Z,1205
2017-03-29T09:22:12.078Z,1215
2017-03-29T09:23:24.621Z,1270
2017-03-29T09:24:37.160Z,1325
2017-03-29T09:25:49.734Z,1365
2017-03-29T09:27:02.276Z,1300
2017-03-29T09:28:14.810Z,1205
2017-03-29T09:29:27.380Z,1145
2017-03-29T09:30:39.939Z,1070
2017-03-29T09:31:52.489Z,1020
2017-03-29T09:33:04.760Z,955
2017-03-29T09:34:17.312Z,890
2017-03-29T09:35:29.885Z,880
2017-03-29T09:36:42.401Z,850
2017-03-29T09:37:54.653Z,885
2017-03-29T09:39:07.197Z,820
2017-03-29T09:40:19.735Z,845
2017-03-29T09:41:32.265Z,1010
2017-03-29T09:42:44.805Z,1095
2017-03-29T09:43:57.354Z,1305
2017-03-29T09:45:09.901Z,1665
2017-03-29T09:46:22.461Z,1525
2017-03-29T09:47:35.009Z,1700
2017-03-29T09:48:47.252Z,1165
2017-03-29T09:49:59.508Z,1100
2017-03-29T09:51:12.079Z,800
2017-03-29T09:52:24.617Z,620
2017-03-29T09:53:37.161Z,555
2017-03-29T09:54:49.694Z,525
2017-03-29T09:56:02.236Z,400
2017-03-29T09:57:14.773Z,455
2017-03-29T09:58:27.319Z,565
2017-03-29T09:59:39.878Z,755
2017-03-29T10:00:52.425Z,775
2017-03-29T10:02:04.963Z,630
2017-03-29T10:03:17.486Z,610
2017-03-29T10:04:29.736Z,615
2017-03-29T10:05:42.258Z,660
2017-03-29T10:06:54.816Z,615
2017-03-29T10:08:07.337Z,540
2017-03-29T10:09:19.870Z,390
2017-03-29T10:10:32.416Z,310
2017-03-29T10:11:44.677Z,350
2017-03-29T10:12:56.624Z,465
2017-03-29T10:14:09.174Z,610
2017-03-29T10:15:21.700Z,770
2017-03-29T10:16:34.245Z,1010
2017-03-29T10:17:46.766Z,1185
2017-03-29T10:18:59.309Z,1200
2017-03-29T10:20:11.857Z,1230
2017-03-29T10:21:24.395Z,1245
2017-03-29T10:22:36.946Z,1230
2017-03-29T10:23:49.485Z,1270
2017-03-29T10:25:01.734Z,1300
2017-03-29T10:26:14.259Z,1290
2017-03-29T10:27:26.525Z,1235
2017-03-29T10:28:39.071Z,1220
2017-03-29T10:29:51.614Z,1160
2017-03-29T10:31:03.843Z,1145
2017-03-29T10:32:16.409Z,1185
2017-03-29T10:33:28.634Z,1165
2017-03-29T10:34:41.159Z,1090
2017-03-29T10:35:53.401Z,990
2017-03-29T10:37:05.323Z,970
2017-03-29T10:38:17.893Z,935
2017-03-29T10:39:30.419Z,950
2017-03-29T10:40:42.980Z,1015
2017-03-29T10:41:55.538Z,905
2017-03-29T10:43:08.050Z,890
2017-03-29T10:44:19.994Z,680
2017-03-29T10:45:32.496Z,470
2017-03-29T10:46:44.760Z,390
2017-03-29T10:47:57.285Z,430
2017-03-29T10:49:09.849Z,460
2017-03-29T10:50:22.407Z,295
2017-03-29T10:51:34.971Z,275
2017-03-29T10:52:47.515Z,300
2017-03-29T10:54:00.045Z,410
2017-03-29T10:55:12.286Z,465
2017-03-29T10:56:24.528Z,445
2017-03-29T10:57:37.352Z,630
2017-03-29T10:58:49.876Z,920
2017-03-29T11:00:02.112Z,1055
2017-03-29T11:01:14.633Z,1005
2017-03-29T11:02:27.161Z,940
2017-03-29T11:03:39.682Z,1015
2017-03-29T11:04:52.207Z,770
2017-03-29T11:06:04.444Z,575
2017-03-29T11:07:16.972Z,415
2017-03-29T11:08:29.178Z,465
2017-03-29T11:09:41.437Z,595
2017-03-29T11:10:53.982Z,645
2017-03-29T11:12:05.930Z,720
2017-03-29T11:13:18.157Z,735
2017-03-29T11:14:30.411Z,655
2017-03-29T11:15:42.058Z,625
2017-03-29T11:16:54.312Z,535
2017-03-29T11:18:06.837Z,515
2017-03-29T11:19:19.398Z,585
2017-03-29T11:20:31.624Z,655
2017-03-29T11:21:43.846Z,690
2017-03-29T11:22:56.419Z,730
2017-03-29T11:24:08.342Z,745
2017-03-29T11:25:20.876Z,710
2017-03-29T11:26:33.125Z,640
2017-03-29T11:27:45.635Z,605
2017-03-29T11:28:57.575Z,620
2017-03-29T11:30:09.794Z,665
2017-03-29T11:31:22.317Z,670
2017-03-29T11:32:34.555Z,660
2017-03-29T11:33:47.108Z,645
2017-03-29T11:34:59.651Z,650
2017-03-29T11:36:12.188Z,700
2017-03-29T11:37:24.419Z,775
2017-03-29T11:38:36.669Z,815
2017-03-29T11:39:49.214Z,770
2017-03-29T11:41:01.461Z,805
2017-03-29T11:42:13.701Z,850
2017-03-29T11:43:26.226Z,905
2017-03-29T11:44:38.489Z,880
2017-03-29T11:45:51.039Z,910
2017-03-29T11:47:03.555Z,875
2017-03-29T11:48:15.759Z,790
2017-03-29T11:49:28.354Z,695
2017-03-29T11:50:40.590Z,610
2017-03-29T11:51:53.122Z,575
2017-03-29T11:53:05.039Z,580
2017-03-29T11:54:16.981Z,565
2017-03-29T11:55:29.206Z,580
2017-03-29T11:56:41.743Z,665
2017-03-29T11:57:54.277Z,685
2017-03-29T11:59:06.793Z,630
2017-03-29T12:00:19.036Z,615
2017-03-29T12:01:30.664Z,480
2017-03-29T12:02:43.225Z,540
2017-03-29T12:03:55.756Z,495
2017-03-29T12:05:07.719Z,520
2017-03-29T12:06:20.238Z,690
2017-03-29T12:07:32.186Z,720
2017-03-29T12:08:44.689Z,675
2017-03-29T12:09:57.212Z,650
2017-03-29T12:11:09.748Z,610
2017-03-29T12:12:22.323Z,555
2017-03-29T12:13:34.547Z,560
2017-03-29T12:14:47.090Z,580
2017-03-29T12:15:59.017Z,585
2017-03-29T12:17:11.549Z,580
2017-03-29T12:18:23.483Z,620
2017-03-29T12:19:36.026Z,570
2017-03-29T12:20:48.247Z,445
2017-03-29T12:22:00.498Z,420
2017-03-29T12:23:12.737Z,495
2017-03-29T12:24:25.013Z,595
2017-03-29T12:25:37.257Z,510
2017-03-29T12:26:49.776Z,365
2017-03-29T12:28:02.338Z,365
2017-03-29T12:29:14.566Z,355
2017-03-29T12:30:27.120Z,275
2017-03-29T12:31:39.336Z,290
2017-03-29T12:32:51.854Z,265
2017-03-29T12:34:04.379Z,315
2017-03-29T12:35:16.897Z,255
2017-03-29T12:36:29.435Z,235
2017-03-29T12:37:41.667Z,340
2017-03-29T12:38:54.243Z,465
2017-03-29T12:40:06.501Z,445
2017-03-29T12:41:19.046Z,450
2017-03-29T12:42:31.591Z,465
2017-03-29T12:43:44.138Z,475
2017-03-29T12:44:56.664Z,555
2017-03-29T12:46:08.918Z,620
2017-03-29T12:47:21.472Z,625
2017-03-29T12:48:34.005Z,530
2017-03-29T12:49:46.569Z,605
2017-03-29T12:50:59.123Z,590
2017-03-29T12:52:11.671Z,665
2017-03-29T12:53:24.202Z,775
2017-03-29T12:54:36.731Z,890
2017-03-29T12:55:49.277Z,860
2017-03-29T12:57:01.826Z,845
2017-03-29T12:58:14.066Z,875
2017-03-29T12:59:26.324Z,860
2017-03-29T13:00:38.557Z,830
2017-03-29T13:01:51.086Z,800
2017-03-29T13:03:03.645Z,725
2017-03-29T13:04:16.175Z,710
2017-03-29T13:05:28.414Z,680
2017-03-29T13:06:40.665Z,615
2017-03-29T13:07:53.206Z,555
2017-03-29T13:09:05.435Z,580
2017-03-29T13:10:17.981Z,525
2017-03-29T13:11:30.199Z,440
2017-03-29T13:12:42.719Z,400
2017-03-29T13:13:55.268Z,385
2017-03-29T13:15:07.511Z,410
2017-03-29T13:16:19.707Z,385
2017-03-29T13:17:32.227Z,410
2017-03-29T13:18:45.119Z,405
2017-03-29T13:19:57.365Z,400
2017-03-29T13:21:09.619Z,410
2017-03-29T13:22:22.165Z,400
2017-03-29T13:23:34.728Z,390
2017-03-29T13:24:47.270Z,415
2017-03-29T13:25:59.224Z,430
2017-03-29T13:27:11.473Z,425
2017-03-29T13:28:23.695Z,440
2017-03-29T13:29:36.290Z,375
2017-03-29T13:30:48.554Z,350
2017-03-29T13:32:01.108Z,325
2017-03-29T13:33:13.651Z,300
2017-03-29T13:34:25.850Z,335
2017-03-29T13:35:37.794Z,345
2017-03-29T13:36:50.340Z,325
2017-03-29T13:38:02.576Z,310
2017-03-29T13:39:15.078Z,380
2017-03-29T13:40:26.704Z,460
2017-03-29T13:41:38.946Z,480
2017-03-29T13:42:51.208Z,500
2017-03-29T13:44:03.463Z,540
2017-03-29T13:45:15.685Z,600
2017-03-29T13:46:27.611Z,620
2017-03-29T13:47:40.144Z,640
2017-03-29T13:48:52.715Z,585
2017-03-29T13:50:04.371Z,470
2017-03-29T13:51:16.929Z,435
2017-03-29T13:52:29.159Z,410
2017-03-29T13:53:41.701Z,375
2017-03-29T13:54:54.206Z,390
2017-03-29T13:56:06.751Z,435
2017-03-29T13:57:18.699Z,475
2017-03-29T13:58:30.592Z,455
2017-03-29T13:59:43.111Z,465
2017-03-29T14:00:55.635Z,425
2017-03-29T14:02:08.152Z,380
2017-03-29T14:03:20.677Z,380
2017-03-29T14:04:32.623Z,375
2017-03-29T14:05:45.146Z,385
2017-03-29T14:06:57.689Z,400
2017-03-29T14:08:09.931Z,445
2017-03-29T14:09:22.480Z,480
2017-03-29T14:10:35.028Z,495
2017-03-29T14:11:47.268Z,520
2017-03-29T14:12:59.507Z,515
2017-03-29T14:14:12.015Z,560
2017-03-29T14:15:24.565Z,615
2017-03-29T14:16:37.119Z,605
2017-03-29T14:17:49.675Z,595
2017-03-29T14:19:01.899Z,600
2017-03-29T14:20:14.445Z,600
2017-03-29T14:21:26.683Z,580
2017-03-29T14:22:38.953Z,530
2017-03-29T14:23:51.503Z,520
2017-03-29T14:25:04.042Z,530
2017-03-29T14:26:16.595Z,515
2017-03-29T14:27:28.865Z,490
2017-03-29T14:28:41.754Z,460
2017-03-29T14:29:54.275Z,475
2017-03-29T14:31:06.521Z,485
2017-03-29T14:32:19.045Z,485
2017-03-29T14:33:31.570Z,470
2017-03-29T14:34:44.143Z,480
2017-03-29T14:35:56.666Z,480
2017-03-29T14:37:09.200Z,480
2017-03-29T14:38:21.708Z,485
2017-03-29T14:39:34.225Z,475
2017-03-29T14:40:46.766Z,505
2017-03-29T14:41:59.016Z,515
2017-03-29T14:43:11.564Z,560
2017-03-29T14:44:24.090Z,545
2017-03-29T14:45:36.646Z,545
2017-03-29T14:46:48.874Z,525
2017-03-29T14:48:01.113Z,525
2017-03-29T14:49:13.343Z,440
2017-03-29T14:50:25.863Z,475
2017-03-29T14:51:37.502Z,445
2017-03-29T14:52:49.747Z,390
2017-03-29T14:54:01.976Z,390
2017-03-29T14:55:14.528Z,310
2017-03-29T14:56:27.068Z,300
2017-03-29T14:57:39.617Z,345
2017-03-29T14:58:51.839Z,325
2017-03-29T15:00:04.382Z,320
2017-03-29T15:01:16.305Z,335
2017-03-29T15:02:28.539Z,330
2017-03-29T15:03:41.071Z,365
2017-03-29T15:04:53.618Z,365
2017-03-29T15:06:06.159Z,385
2017-03-29T15:07:18.360Z,340
2017-03-29T15:08:30.597Z,320
2017-03-29T15:09:42.840Z,350
2017-03-29T15:10:55.373Z,345
2017-03-29T15:12:07.889Z,365
2017-03-29T15:13:20.428Z,360
2017-03-29T15:14:32.985Z,345
2017-03-29T15:15:45.209Z,345
2017-03-29T15:16:57.766Z,300
2017-03-29T15:18:10.019Z,305
2017-03-29T15:19:22.569Z,345
2017-03-29T15:20:34.786Z,340
2017-03-29T15:21:47.310Z,315
2017-03-29T15:22:59.856Z,285
2017-03-29T15:24:12.374Z,265
2017-03-29T15:25:24.900Z,255
2017-03-29T15:26:37.433Z,255
2017-03-29T15:27:49.686Z,245
2017-03-29T15:29:01.927Z,300
2017-03-29T15:30:14.171Z,255
2017-03-29T15:31:26.402Z,250
2017-03-29T15:32:38.922Z,265
2017-03-29T15:33:51.460Z,255
2017-03-29T15:35:03.690Z,205
2017-03-29T15:36:15.932Z,200
2017-03-29T15:37:28.145Z,165
2017-03-29T15:38:40.692Z,160
2017-03-29T15:39:52.997Z,145
2017-03-29T15:41:04.937Z,110
2017-03-29T15:42:17.463Z,125
2017-03-29T15:43:30.005Z,100
2017-03-29T15:44:42.560Z,80
2017-03-29T15:45:54.520Z,65
2017-03-29T15:47:07.050Z,65
2017-03-29T15:48:19.601Z,95
2017-03-29T15:49:32.137Z,80
2017-03-29T15:50:43.762Z,85
2017-03-29T15:51:56.309Z,100
2017-03-29T15:53:08.829Z,95
2017-03-29T15:54:21.375Z,100
2017-03-29T15:55:33.918Z,90
2017-03-29T15:56:46.163Z,75
2017-03-29T15:57:58.063Z,80
2017-03-29T15:59:10.613Z,120
2017-03-29T16:00:23.155Z,115
2017-03-29T16:01:35.674Z,120
2017-03-29T16:02:47.622Z,155
2017-03-29T16:03:59.858Z,140
2017-03-29T16:05:12.384Z,140
2017-03-29T16:06:24.926Z,130
2017-03-29T16:07:37.455Z,115
2017-03-29T16:08:50.025Z,120
2017-03-29T16:10:02.546Z,105
2017-03-29T16:11:14.793Z,120
2017-03-29T16:12:27.035Z,105
2017-03-29T16:13:39.556Z,90
2017-03-29T16:14:52.124Z,105
2017-03-29T16:16:04.657Z,90
2017-03-29T16:17:17.248Z,95
2017-03-29T16:18:29.783Z,85
2017-03-29T16:19:42.363Z,85
2017-03-29T16:20:54.624Z,70
2017-03-29T16:22:07.148Z,50
2017-03-29T16:23:19.093Z,45
2017-03-29T16:24:30.995Z,40
2017-03-29T16:25:43.518Z,45
2017-03-29T16:26:56.036Z,60
2017-03-29T16:28:08.261Z,60
2017-03-29T16:29:20.799Z,50
2017-03-29T16:30:33.303Z,70
2017-03-29T16:31:45.537Z,80
2017-03-29T16:32:57.785Z,65
2017-03-29T16:34:09.733Z,60
2017-03-29T16:35:21.980Z,55
2017-03-29T16:36:34.531Z,65
2017-03-29T16:37:47.066Z,45
2017-03-29T16:38:59.620Z,60
2017-03-29T16:40:12.167Z,55
2017-03-29T16:41:24.087Z,50
2017-03-29T16:42:36.337Z,40
2017-03-29T16:43:48.858Z,30
2017-03-29T16:45:01.376Z,45
2017-03-29T16:46:13.577Z,40
2017-03-29T16:47:25.817Z,40
2017-03-29T16:48:38.037Z,45
2017-03-29T16:49:50.559Z,50
2017-03-29T16:51:03.097Z,50
2017-03-29T16:52:15.600Z,45
2017-03-29T16:53:28.139Z,55
2017-03-29T16:54:40.343Z,45
2017-03-29T16:55:52.583Z,45
2017-03-29T16:57:05.112Z,35
2017-03-29T16:58:17.666Z,35